Swansea, Tasmania

10:15 AM EST on August 31, 2014 (GMT +1000)
Hobart | Change Station
CLOSE
Current Station
Airport
Location: Hobart,
Elevation: 89 ft
Nearby Weather Stations

Elev 89 ft 42.83 °S, 147.50 °E | Updated 15 minutes ago

Scattered Clouds
Scattered Clouds
57 °F
Feels Like 57 °F
N
12
Wind Variable Wind from North

Today
High -- | Low -- °F
--% Chance of Precip.
Yesterday
High -- | Low -- °F
Precip. -- in
6:35 AM 5:41 PM
Waxing Crescent, 26% visible
Pressure 29.98 in
Visibility 6.2 miles
Clouds Few 5000 ft
Scattered Clouds 27000 ft
Dew Point 43 °F
Humidity 59%
Rainfall 0.00 in
Snow Depth Not available.
UV 0 out of 12
Pollen Not available.
Air Quality Not available.
Flu Activity Not available.
METAR YMHB 310000Z 35010KT 9999 FEW050 SCT270 14/06 Q1015

More Conditions Fewer Conditions

Pressure 29.98 in
Visibility 6.2 miles
Clouds Few 5000 ft
Scattered Clouds 27000 ft
Dew Point 43 °F
Humidity 59%
Rainfall 0.00 in
Snow Depth Not available.
UV 0 out of 12
Pollen Not available.
Air Quality Not available.
Flu Activity Not available.
METAR YMHB 310000Z 35010KT 9999 FEW050 SCT270 14/06 Q1015

More Conditions Fewer Conditions

10-Day Weather Forecast

Almanac

Astronomy

Aug. 31, 2014 Rise Set
Actual Time 6:35 AM EST 5:41 PM EST
Civil Twilight 6:07 AM EST 6:09 PM EST
Nautical Twilight 5:35 AM EST 6:41 PM EST
Astronomical Twilight 5:02 AM EST 7:14 PM EST
Moon 9:08 AM EST 11:13 PM EST
Length of Visible Light 12h 01m
Length of Day
11h 05m
Tomorrow will be 2m 41s longer.
Waxing Crescent, 26% of the Moon is Illuminated
Aug 30
Waxing Crescent
Sep 2
First Quarter
Sep 8
Full
Sep 15
Last Quarter
Sep 24
New

Yesterday's Extremes

Country Highs Country Lows

Community

WunderPhotos

Upload Photos

1,748,696 photos uploaded!

Nearby

Snow Depth

Not available.

Earthquake Activity

City Distance Mag. Time & Date
No recent earthquake activity has been reported nearby.
Minimum magnitude displayed is 2.5.

Coastal Water Temperatures

Place Temperature
No Stations Reporting

Nearby Weather Stations